createdAt,value
2019-01-05T00:01:23.936Z,30.10
2019-01-05T00:04:12.024Z,29.33
2019-01-05T00:07:07.581Z,29.50
2019-01-05T00:09:56.922Z,29.30
2019-01-05T00:12:52.437Z,30.00
2019-01-05T00:15:46.458Z,30.93
2019-01-05T00:18:36.215Z,30.87
2019-01-05T00:21:29.263Z,30.90
2019-01-05T00:24:17.582Z,31.60
2019-01-05T00:27:16.820Z,30.97
2019-01-05T00:30:18.889Z,29.47
2019-01-05T00:33:19.662Z,30.77
2019-01-05T00:36:10.934Z,30.77
2019-01-05T00:39:08.567Z,30.43
2019-01-05T00:42:08.932Z,30.33
2019-01-05T00:44:57.757Z,29.70
2019-01-05T00:47:47.265Z,29.20
2019-01-05T00:50:40.336Z,30.60
2019-01-05T00:53:28.479Z,30.17
2019-01-05T00:56:16.806Z,30.47
2019-01-05T00:59:13.005Z,29.23
2019-01-05T01:02:01.575Z,30.27
2019-01-05T01:05:06.152Z,30.13
2019-01-05T01:08:13.622Z,29.63
2019-01-05T01:11:01.554Z,29.67
2019-01-05T01:13:51.994Z,28.73
2019-01-05T01:16:55.288Z,28.37
2019-01-05T01:19:48.225Z,29.07
2019-01-05T01:22:52.838Z,28.00
2019-01-05T01:25:40.947Z,28.90
2019-01-05T01:28:28.894Z,28.30
2019-01-05T01:31:21.130Z,28.13
2019-01-05T01:34:25.875Z,27.80
2019-01-05T01:37:33.573Z,28.30
2019-01-05T01:40:24.878Z,28.53
2019-01-05T01:43:13.691Z,29.87
2019-01-05T01:46:02.631Z,28.67
2019-01-05T01:49:10.128Z,27.93
2019-01-05T01:52:18.400Z,28.33
2019-01-05T01:55:06.391Z,28.20
2019-01-05T01:57:56.687Z,28.17
2019-01-05T02:00:45.423Z,28.47
2019-01-05T02:03:43.693Z,27.07
2019-01-05T02:06:37.604Z,27.20
2019-01-05T02:09:26.244Z,27.70
2019-01-05T02:12:36.662Z,26.67
2019-01-05T02:15:24.487Z,26.30
2019-01-05T02:19:06.054Z,27.17
2019-01-05T02:22:21.258Z,26.63
2019-01-05T02:26:12.449Z,28.20
2019-01-05T02:29:38.588Z,27.60
2019-01-05T02:33:06.664Z,28.57
2019-01-05T02:36:28.274Z,28.07
2019-01-05T02:39:51.562Z,26.73
2019-01-05T02:43:15.301Z,26.90
2019-01-05T02:46:43.406Z,27.23
2019-01-05T02:50:14.776Z,27.40
2019-01-05T02:54:00.576Z,27.40
2019-01-05T02:57:43.255Z,27.87
2019-01-05T03:01:14.438Z,27.70
2019-01-05T03:04:44.195Z,26.30
2019-01-05T03:08:16.355Z,28.23
2019-01-05T03:12:04.569Z,27.47
2019-01-05T03:15:27.536Z,25.50
2019-01-05T03:19:02.286Z,28.03
2019-01-05T03:22:34.385Z,26.20
2019-01-05T03:26:15.179Z,25.63
2019-01-05T03:29:36.841Z,26.97
2019-01-05T03:32:51.253Z,26.67
2019-01-05T03:36:27.627Z,26.53
2019-01-05T03:39:57.482Z,25.83
2019-01-05T03:43:38.613Z,28.47
2019-01-05T03:47:05.421Z,27.13
2019-01-05T03:50:59.591Z,28.70
2019-01-05T03:54:21.095Z,28.93
2019-01-05T03:57:47.042Z,29.33
2019-01-05T04:01:13.230Z,29.17
2019-01-05T04:04:37.088Z,28.57
2019-01-05T04:08:04.459Z,30.17
2019-01-05T04:11:35.366Z,29.00
2019-01-05T04:15:14.247Z,29.97
2019-01-05T04:18:37.042Z,30.07
2019-01-05T04:22:25.320Z,30.63
2019-01-05T04:25:41.213Z,30.87
2019-01-05T04:29:11.770Z,31.83
2019-01-05T04:32:58.646Z,30.37
2019-01-05T04:36:33.333Z,32.00
2019-01-05T04:40:15.301Z,32.07
2019-01-05T04:43:16.202Z,30.20
2019-01-05T04:46:45.785Z,31.33
2019-01-05T04:50:37.233Z,30.87
2019-01-05T04:54:22.601Z,32.37
2019-01-05T04:57:51.112Z,31.90
2019-01-05T05:01:22.506Z,32.43
2019-01-05T05:04:53.576Z,32.23
2019-01-05T05:08:10.678Z,31.47
2019-01-05T05:11:28.029Z,32.60
2019-01-05T05:15:09.155Z,33.37
2019-01-05T05:18:59.554Z,34.07
2019-01-05T05:22:45.135Z,32.27
2019-01-05T05:26:10.018Z,36.10
2019-01-05T05:29:51.271Z,34.03
2019-01-05T05:33:05.009Z,35.60
2019-01-05T05:36:36.914Z,34.90
2019-01-05T05:40:33.155Z,35.80
2019-01-05T05:44:06.115Z,36.07
2019-01-05T05:47:52.593Z,36.40
2019-01-05T05:51:13.045Z,36.17
2019-01-05T05:54:41.191Z,35.80
2019-01-05T05:58:14.812Z,37.70
2019-01-05T06:01:43.366Z,35.73
2019-01-05T06:05:23.980Z,36.47
2019-01-05T06:08:49.418Z,35.70
2019-01-05T06:12:51.173Z,37.93
2019-01-05T06:16:27.291Z,37.53
2019-01-05T06:20:13.560Z,35.17
2019-01-05T06:24:12.517Z,40.40
2019-01-05T06:27:53.535Z,38.40
2019-01-05T06:31:22.561Z,37.57
2019-01-05T06:34:54.273Z,38.20
2019-01-05T06:37:57.446Z,37.77
2019-01-05T06:41:44.334Z,38.13
2019-01-05T06:45:02.383Z,37.43
2019-01-05T06:48:29.835Z,38.47
2019-01-05T06:52:21.350Z,37.13
2019-01-05T06:55:45.552Z,39.30
2019-01-05T06:59:10.356Z,40.83
2019-01-05T07:02:51.482Z,42.93
2019-01-05T07:06:33.236Z,40.63
2019-01-05T07:10:11.728Z,38.47
2019-01-05T07:14:06.320Z,45.17
2019-01-05T07:17:38.330Z,41.70
2019-01-05T07:21:26.650Z,42.93
2019-01-05T07:25:01.754Z,40.93
2019-01-05T07:28:46.049Z,42.83
2019-01-05T07:32:03.778Z,43.17
2019-01-05T07:35:28.858Z,38.40
2019-01-05T07:38:53.950Z,38.97
2019-01-05T07:42:41.866Z,43.23
2019-01-05T07:46:15.363Z,38.10
2019-01-05T07:49:42.076Z,42.10
2019-01-05T07:53:08.864Z,41.97
2019-01-05T07:56:26.087Z,43.40
2019-01-05T08:00:13.725Z,45.00
2019-01-05T08:04:17.206Z,43.27
2019-01-05T08:07:55.926Z,41.23
2019-01-05T08:11:35.280Z,41.70
2019-01-05T08:15:10.656Z,41.83
2019-01-05T08:18:27.970Z,38.97
2019-01-05T08:21:57.682Z,40.10
2019-01-05T08:25:24.323Z,39.53
2019-01-05T08:28:43.785Z,40.20
2019-01-05T08:32:26.333Z,38.60
2019-01-05T08:36:14.177Z,43.73
2019-01-05T08:39:55.159Z,38.25
2019-01-05T08:43:18.932Z,38.57
2019-01-05T08:46:56.340Z,36.40
2019-01-05T08:50:33.135Z,38.93
2019-01-05T09:01:49.003Z,37.63
2019-01-05T09:05:53.942Z,38.80
2019-01-05T09:09:21.474Z,35.37
2019-01-05T09:12:45.463Z,43.50
2019-01-05T09:16:35.542Z,38.23
2019-01-05T09:20:13.343Z,37.07
2019-01-05T09:23:56.907Z,36.60
2019-01-05T09:27:26.168Z,35.70
2019-01-05T09:30:45.565Z,37.17
2019-01-05T09:34:24.062Z,33.30
2019-01-05T09:37:41.399Z,37.87
2019-01-05T09:41:05.659Z,34.93
2019-01-05T09:44:34.575Z,35.63
2019-01-05T09:47:50.770Z,37.27
2019-01-05T09:51:16.682Z,35.70
2019-01-05T09:55:01.329Z,31.90
2019-01-05T09:58:26.951Z,31.77
2019-01-05T10:02:14.194Z,34.60
2019-01-05T10:05:43.842Z,27.57
2019-01-05T10:09:06.817Z,31.93
2019-01-05T10:12:35.748Z,34.90
2019-01-05T10:16:02.335Z,32.67
2019-01-05T10:20:07.195Z,31.67
2019-01-05T10:24:03.053Z,29.93
2019-01-05T10:27:20.915Z,30.10
2019-01-05T10:30:38.370Z,31.10
2019-01-05T10:34:15.689Z,30.63
2019-01-05T10:37:42.444Z,32.10
2019-01-05T10:41:26.170Z,30.97
2019-01-05T10:44:54.905Z,28.10
2019-01-05T10:48:36.623Z,29.17
2019-01-05T10:52:06.740Z,27.07
2019-01-05T10:55:35.415Z,27.67
2019-01-05T10:59:04.075Z,26.70
2019-01-05T11:02:36.337Z,27.50
2019-01-05T11:06:09.092Z,27.93
2019-01-05T11:09:31.102Z,26.33
2019-01-05T11:12:58.822Z,26.73
2019-01-05T11:16:22.055Z,24.90
2019-01-05T11:19:47.377Z,27.77
2019-01-05T11:23:20.811Z,26.80
2019-01-05T11:26:57.166Z,25.20
2019-01-05T11:30:47.733Z,26.13
2019-01-05T11:34:21.453Z,27.77
2019-01-05T11:37:44.020Z,28.63
2019-01-05T11:41:18.884Z,28.03
2019-01-05T11:44:49.158Z,28.83
2019-01-05T11:48:17.892Z,29.77
2019-01-05T11:52:33.509Z,29.47
2019-01-05T11:56:05.371Z,26.43
2019-01-05T11:59:57.097Z,25.30
2019-01-05T12:03:56.805Z,25.67
2019-01-05T12:07:26.648Z,25.57
2019-01-05T12:11:04.057Z,25.70
2019-01-05T12:15:00.337Z,26.63
2019-01-05T12:18:50.308Z,25.23
2019-01-05T12:22:27.296Z,24.43
2019-01-05T12:26:01.875Z,23.80
2019-01-05T12:29:37.155Z,26.30
2019-01-05T12:33:19.241Z,23.37
2019-01-05T12:36:54.677Z,25.90
2019-01-05T12:40:51.267Z,26.53
2019-01-05T12:44:28.122Z,29.20
2019-01-05T12:48:09.481Z,28.43
2019-01-05T12:51:40.546Z,28.90
2019-01-05T12:55:41.452Z,26.60
2019-01-05T12:59:07.611Z,25.27
2019-01-05T13:02:50.066Z,22.30
2019-01-05T13:05:47.441Z,24.10
2019-01-05T13:09:18.186Z,24.53
2019-01-05T13:12:55.031Z,21.97
2019-01-05T13:16:30.063Z,24.97
2019-01-05T13:20:21.374Z,22.53
2019-01-05T13:23:46.537Z,23.27
2019-01-05T13:27:17.263Z,22.57
2019-01-05T13:31:13.722Z,23.30
2019-01-05T13:35:13.234Z,21.67
2019-01-05T13:38:33.070Z,21.03
2019-01-05T13:42:17.099Z,23.20
2019-01-05T13:46:14.522Z,24.30
2019-01-05T13:49:28.530Z,24.03
2019-01-05T13:52:37.983Z,21.27
2019-01-05T13:55:43.085Z,21.27
2019-01-05T13:58:32.439Z,21.90
2019-01-05T14:01:34.131Z,24.60
2019-01-05T14:04:36.315Z,23.03
2019-01-05T14:07:37.863Z,20.70
2019-01-05T14:10:40.727Z,20.00
2019-01-05T14:13:28.998Z,19.57
2019-01-05T14:16:27.047Z,19.67
2019-01-05T14:19:14.990Z,19.00
2019-01-05T14:22:04.327Z,22.40
2019-01-05T14:24:58.864Z,21.87
2019-01-05T14:27:56.982Z,22.40
2019-01-05T14:30:46.334Z,17.37
2019-01-05T14:33:34.509Z,21.07
2019-01-05T14:36:23.868Z,22.63
2019-01-05T14:39:11.765Z,22.63
2019-01-05T14:42:01.522Z,22.43
2019-01-05T14:45:09.004Z,21.57
2019-01-05T14:48:01.365Z,22.80
2019-01-05T14:50:49.698Z,20.90
2019-01-05T14:53:51.122Z,22.50
2019-01-05T14:56:55.563Z,23.43
2019-01-05T14:59:58.623Z,23.47
2019-01-05T15:02:41.944Z,23.30
2019-01-05T15:05:37.183Z,24.37
2019-01-05T15:08:25.402Z,23.17
2019-01-05T15:11:25.154Z,25.17
2019-01-05T15:14:14.450Z,24.57
2019-01-05T15:17:22.173Z,25.13
2019-01-05T15:20:11.482Z,27.90
2019-01-05T15:22:59.433Z,26.10
2019-01-05T15:25:54.639Z,24.93
2019-01-05T15:28:42.562Z,24.97
2019-01-05T15:31:40.964Z,25.43
2019-01-05T15:34:36.432Z,25.20
2019-01-05T15:37:29.619Z,26.93
2019-01-05T15:40:25.337Z,28.53
2019-01-05T15:43:18.687Z,29.63
2019-01-05T15:46:06.670Z,48.30
2019-01-05T15:48:56.026Z,31.00
2019-01-05T15:52:04.819Z,32.47
2019-01-05T15:54:56.714Z,29.47
2019-01-05T15:57:44.773Z,30.00
2019-01-05T16:00:43.431Z,31.50
2019-01-05T16:03:41.871Z,29.40
2019-01-05T16:06:33.955Z,28.17
2019-01-05T16:09:24.006Z,29.17
2019-01-05T16:12:15.637Z,31.50
2019-01-05T16:15:04.288Z,28.25
2019-01-05T16:17:59.529Z,26.87
2019-01-05T16:20:52.380Z,30.97
2019-01-05T16:23:40.761Z,31.03
2019-01-05T16:26:48.347Z,28.13
2019-01-05T16:29:40.761Z,25.50
2019-01-05T16:32:28.480Z,29.07
2019-01-05T16:35:17.827Z,34.10
2019-01-05T16:38:01.354Z,27.87
2019-01-05T16:40:49.448Z,29.27
2019-01-05T16:43:38.803Z,22.93
2019-01-05T16:46:40.189Z,27.43
2019-01-05T16:49:28.607Z,28.73
2019-01-05T16:52:16.810Z,29.17
2019-01-05T16:55:24.434Z,25.93
2019-01-05T16:58:13.804Z,28.80
2019-01-05T17:01:22.632Z,30.00
2019-01-05T17:04:12.699Z,28.40
2019-01-05T17:07:01.999Z,29.87
2019-01-05T17:09:51.361Z,28.93
2019-01-05T17:12:39.501Z,30.30
2019-01-05T17:15:43.992Z,29.47
2019-01-05T17:18:33.449Z,26.57
2019-01-05T17:21:19.300Z,27.43
2019-01-05T17:24:07.609Z,29.73
2019-01-05T17:26:59.688Z,31.50
2019-01-05T17:29:45.118Z,30.80
2019-01-05T17:32:40.784Z,29.37
2019-01-05T17:35:30.808Z,28.63
2019-01-05T17:38:26.003Z,29.73
2019-01-05T17:41:25.588Z,28.87
2019-01-05T17:44:17.709Z,31.13
2019-01-05T17:47:10.159Z,29.23
2019-01-05T17:50:11.771Z,28.37
2019-01-05T17:53:07.116Z,29.13
2019-01-05T17:55:56.472Z,32.13
2019-01-05T17:58:54.706Z,29.33
2019-01-05T18:01:43.103Z,29.03
2019-01-05T18:04:49.834Z,28.83
2019-01-05T18:07:37.974Z,29.83
2019-01-05T18:10:35.398Z,29.43
2019-01-05T18:13:21.229Z,26.93
2019-01-05T18:16:22.938Z,30.97
2019-01-05T18:19:21.625Z,26.97
2019-01-05T18:22:12.608Z,26.53
2019-01-05T18:25:02.597Z,26.33
2019-01-05T18:27:50.867Z,25.77
2019-01-05T18:30:39.087Z,26.67
2019-01-05T18:33:46.784Z,24.40
2019-01-05T18:36:36.144Z,27.57
2019-01-05T18:39:25.599Z,28.57
2019-01-05T18:42:14.039Z,28.17
2019-01-05T18:45:02.255Z,30.03
2019-01-05T18:47:59.417Z,30.33
2019-01-05T18:50:41.456Z,26.60
2019-01-05T18:53:30.783Z,25.83
2019-01-05T18:56:18.866Z,28.03
2019-01-05T18:59:10.110Z,26.93
2019-01-05T19:02:02.599Z,26.90
2019-01-05T19:04:58.011Z,27.17
2019-01-05T19:07:47.469Z,26.13
2019-01-05T19:10:35.814Z,29.03
2019-01-05T19:13:25.117Z,28.13
2019-01-05T19:16:17.512Z,24.73
2019-01-05T19:19:16.066Z,25.33
2019-01-05T19:22:03.977Z,23.20
2019-01-05T19:25:08.599Z,23.73
2019-01-05T19:27:51.511Z,23.87
2019-01-05T19:30:52.997Z,24.77
2019-01-05T19:33:37.927Z,22.00
2019-01-05T19:36:33.309Z,22.83
2019-01-05T19:39:08.510Z,23.53
2019-01-05T19:41:56.833Z,25.23
2019-01-05T19:44:45.994Z,25.07
2019-01-05T19:47:34.032Z,22.17
2019-01-05T19:50:22.996Z,22.43
2019-01-05T19:53:27.545Z,21.97
2019-01-05T19:56:26.220Z,23.30
2019-01-05T19:59:16.375Z,24.70
2019-01-05T20:02:07.007Z,24.10
2019-01-05T20:05:11.664Z,23.73
2019-01-05T20:08:03.844Z,24.43
2019-01-05T20:10:59.495Z,22.93
2019-01-05T20:13:57.897Z,23.70
2019-01-05T20:16:49.766Z,22.47
2019-01-05T20:19:48.331Z,22.83
2019-01-05T20:22:44.703Z,17.90
2019-01-05T20:25:34.006Z,20.43
2019-01-05T20:28:22.129Z,22.37
2019-01-05T20:31:17.472Z,20.77
2019-01-05T20:34:07.567Z,21.37
2019-01-05T20:36:55.721Z,19.33
2019-01-05T20:39:33.971Z,21.93
2019-01-05T20:42:23.407Z,22.30
2019-01-05T20:45:10.943Z,22.43
2019-01-05T20:47:59.105Z,20.63
2019-01-05T20:50:42.420Z,20.50
2019-01-05T20:53:30.416Z,23.17
2019-01-05T20:56:16.482Z,22.07
2019-01-05T20:59:15.205Z,23.37
2019-01-05T21:02:13.654Z,22.57
2019-01-05T21:05:01.692Z,22.80
2019-01-05T21:07:51.101Z,23.80
2019-01-05T21:10:39.806Z,23.53
2019-01-05T21:13:28.030Z,23.77
2019-01-05T21:16:32.855Z,23.73
2019-01-05T21:19:22.213Z,22.87
2019-01-05T21:22:17.729Z,22.47
2019-01-05T21:25:05.829Z,22.93
2019-01-05T21:27:57.941Z,23.73
2019-01-05T21:30:45.861Z,22.50
2019-01-05T21:33:47.410Z,23.07
2019-01-05T21:36:35.867Z,22.67
2019-01-05T21:39:25.998Z,24.20
2019-01-05T21:42:31.064Z,24.63
2019-01-05T21:45:19.151Z,22.70
2019-01-05T21:48:08.745Z,23.60
2019-01-05T21:51:10.174Z,24.30
2019-01-05T21:53:54.548Z,22.73
2019-01-05T21:56:55.858Z,22.13
2019-01-05T21:59:51.455Z,18.93
2019-01-05T22:02:37.769Z,20.70
2019-01-05T22:05:29.850Z,22.20
2019-01-05T22:08:16.795Z,20.57
2019-01-05T22:11:04.963Z,20.97
2019-01-05T22:13:52.301Z,19.63
2019-01-05T22:16:44.706Z,19.23
2019-01-05T22:19:31.052Z,20.90
2019-01-05T22:22:17.527Z,21.50
2019-01-05T22:25:18.341Z,20.20
2019-01-05T22:28:10.426Z,21.27
2019-01-05T22:30:58.468Z,21.30
2019-01-05T22:33:58.381Z,21.13
2019-01-05T22:36:50.738Z,19.63
2019-01-05T22:39:38.485Z,20.50
2019-01-05T22:42:27.769Z,20.27
2019-01-05T22:45:18.666Z,19.40
2019-01-05T22:48:06.634Z,18.67
2019-01-05T22:50:56.859Z,19.50
2019-01-05T22:53:49.298Z,19.23
2019-01-05T22:56:37.558Z,19.33
2019-01-05T22:59:45.326Z,19.33
2019-01-05T23:02:49.874Z,19.27
2019-01-05T23:05:42.080Z,19.83
2019-01-05T23:08:46.779Z,18.33
2019-01-05T23:11:32.475Z,18.73
2019-01-05T23:14:24.942Z,18.93
2019-01-05T23:17:13.094Z,19.27
2019-01-05T23:20:01.120Z,20.43
2019-01-05T23:22:49.452Z,19.50
2019-01-05T23:25:41.758Z,19.67
2019-01-05T23:28:46.220Z,20.00
2019-01-05T23:31:41.571Z,19.60
2019-01-05T23:34:34.028Z,21.00
2019-01-05T23:37:22.321Z,21.53
2019-01-05T23:40:11.015Z,20.47
2019-01-05T23:43:09.181Z,20.87
2019-01-05T23:45:57.165Z,20.80
2019-01-05T23:48:49.251Z,21.53
2019-01-05T23:51:44.667Z,21.70
2019-01-05T23:54:32.709Z,21.13
2019-01-05T23:57:21.970Z,20.87
